»·PEaware :: N364CM KTOA-KVNY

N364CM :: KTOA-KVNY

FLIGHT INFORMATION

Flight Status: Arrived
Operator: Privately registered:
United States
More flights under this callsign
Pilot: Brian S. (32023)
Aircraft: BEECH AIRCRAFT SUPER KING AIR 350
(B350)
More flights by this aircraft type
Origin: KTOA Zamperini
United States
Destination: KVNY Van Nuys
United States
More flights between these airports :: More routes between these airports
Route: LAX170 LIMBO V64 SMO125R SMO SMO317 CANOG
File this flight plan on PilotEdge
Remarks: TEC ROUTE SCTP2, SKYHIGH CHARTER SCENARIO #1
Altitude:
(Current/Filed)
5,000ft
Speed:
(Current/Filed)
220kts
Departed: 15-Feb-21 04:35 PM
Arrived: 15-Feb-21 05:35 PM
Distance/Time
Traveled:
25nm/1:00
Distance/Time
To Go:
Arrived

Flight Plot

Page will automatically refresh every two minutes.

Flight plan parsing failed; only flown route is shown


Map Options




Map Legend


Flown Route
Filed Route
Departure Airport
Arrival Airport
Navaid (VOR, NDB)
Fix

Horizontal Profiles

Position Reports

Time Latitude Longitude Heading Altitude Ground
Speed
15-Feb-21 16:16 33.803347 -118.344051 39 113ft 0kts
15-Feb-21 16:17 33.803347 -118.344051 39 113ft 0kts
15-Feb-21 16:18 33.803347 -118.344051 39 113ft 0kts
15-Feb-21 16:19 33.803347 -118.344051 39 113ft 0kts
15-Feb-21 16:20 33.803347 -118.344051 39 113ft 0kts
15-Feb-21 16:21 33.803347 -118.344051 39 113ft 0kts
15-Feb-21 16:22 33.803347 -118.344051 39 113ft 0kts
15-Feb-21 16:23 33.803347 -118.344051 39 113ft 0kts
15-Feb-21 16:24 33.803347 -118.344051 39 113ft 0kts
15-Feb-21 16:25 33.803347 -118.344051 39 113ft 0kts
15-Feb-21 16:26 33.803347 -118.344051 39 113ft 0kts
15-Feb-21 16:27 33.803347 -118.344051 39 113ft 0kts
15-Feb-21 16:28 33.803347 -118.344051 39 113ft 0kts
15-Feb-21 16:29 33.803347 -118.344051 39 113ft 0kts
15-Feb-21 16:30 33.802933 -118.342242 65 110ft 7kts
15-Feb-21 16:31 33.800769 -118.338657 128 108ft 21kts
15-Feb-21 16:32 33.798081 -118.334281 53 112ft 6kts
15-Feb-21 16:33 33.799376 -118.333031 32 102ft 6kts
15-Feb-21 16:34 33.808930 -118.346880 307 188ft 128kts
15-Feb-21 16:35 33.833967 -118.388240 306 1086ft 164kts
15-Feb-21 16:36 33.860637 -118.433807 287 2184ft 169kts
15-Feb-21 16:37 33.827037 -118.454609 158 2960ft 187kts
15-Feb-21 16:38 33.774132 -118.446242 150 3845ft 180kts
15-Feb-21 16:39 33.762682 -118.390534 83 4742ft 182kts
15-Feb-21 16:40 33.767149 -118.325106 86 4949ft 215kts
15-Feb-21 16:41 33.801702 -118.270080 10 4940ft 233kts
15-Feb-21 16:42 33.858178 -118.303850 320 4937ft 240kts
15-Feb-21 16:43 33.906992 -118.352553 320 4936ft 243kts
15-Feb-21 16:44 33.959020 -118.404748 320 4936ft 245kts
15-Feb-21 16:45 34.011916 -118.456637 327 4935ft 245kts
15-Feb-21 16:46 34.071650 -118.496043 332 4935ft 245kts
15-Feb-21 16:47 34.131934 -118.534735 332 4935ft 245kts
15-Feb-21 16:48 34.193263 -118.568044 351 4958ft 242kts
15-Feb-21 16:49 34.260279 -118.580376 351 4955ft 244kts
15-Feb-21 16:50 34.327580 -118.592678 351 4955ft 245kts
15-Feb-21 16:51 34.395025 -118.604995 351 4954ft 245kts
15-Feb-21 16:52 34.453942 -118.615742 351 4955ft 246kts
15-Feb-21 16:54 34.489511 -118.561803 82 4957ft 244kts
15-Feb-21 16:55 34.480303 -118.486677 155 4964ft 242kts
15-Feb-21 16:56 34.416404 -118.505490 189 4942ft 244kts
15-Feb-21 16:57 34.349956 -118.503533 175 4958ft 213kts
15-Feb-21 16:58 34.303449 -118.499238 174 4232ft 154kts
15-Feb-21 16:59 34.259651 -118.495242 175 1914ft 141kts
15-Feb-21 17:00 34.225338 -118.491750 175 1082ft 114kts
15-Feb-21 17:01 34.188445 -118.490147 180 1557ft 150kts
15-Feb-21 17:02 34.147501 -118.470220 164 2221ft 168kts
15-Feb-21 17:03 34.101517 -118.457151 168 2823ft 179kts
15-Feb-21 17:04 34.052137 -118.455410 182 3465ft 180kts
15-Feb-21 17:05 34.017012 -118.488945 267 4042ft 180kts
15-Feb-21 17:06 34.026395 -118.548540 282 4571ft 184kts
15-Feb-21 17:07 34.037917 -118.613301 282 4569ft 208kts
15-Feb-21 17:08 34.050152 -118.682734 281 4565ft 218kts
15-Feb-21 17:09 34.062815 -118.755109 281 4564ft 222kts
15-Feb-21 17:10 34.075978 -118.828587 282 4563ft 224kts
15-Feb-21 17:11 34.088797 -118.900417 282 4563ft 225kts
15-Feb-21 17:12 34.101906 -118.974201 282 4563ft 225kts
15-Feb-21 17:13 34.116290 -119.044360 299 4542ft 196kts
15-Feb-21 17:14 34.154357 -119.085432 323 4569ft 187kts
15-Feb-21 17:14 34.192194 -119.107598 12 4568ft 188kts
15-Feb-21 17:15 34.199906 -119.058844 147 4567ft 186kts
15-Feb-21 17:16 34.149475 -119.060501 188 4563ft 186kts
15-Feb-21 17:18 34.108730 -119.024814 68 4575ft 181kts
15-Feb-21 17:19 34.149735 -119.027506 321 4566ft 181kts
15-Feb-21 17:19 34.180872 -119.061514 291 4545ft 183kts
15-Feb-21 17:20 34.150535 -119.081970 144 4586ft 178kts
15-Feb-21 17:22 34.118154 -119.030860 61 4578ft 179kts
15-Feb-21 17:22 34.135564 -118.985735 70 4564ft 182kts
15-Feb-21 17:23 34.153004 -118.927859 69 4564ft 184kts
15-Feb-21 17:25 34.173896 -118.859741 69 4563ft 186kts
15-Feb-21 17:25 34.190846 -118.811550 65 4567ft 187kts
15-Feb-21 17:26 34.202741 -118.750034 90 4093ft 204kts
15-Feb-21 17:27 34.201814 -118.690492 90 3355ft 158kts
15-Feb-21 17:28 34.201302 -118.639058 90 3358ft 149kts
15-Feb-21 17:29 34.208724 -118.591306 45 3225ft 161kts
15-Feb-21 17:30 34.238562 -118.547971 57 2705ft 177kts
15-Feb-21 17:31 34.269232 -118.507742 56 2103ft 160kts
15-Feb-21 17:32 34.242121 -118.491891 176 1376ft 139kts
15-Feb-21 17:33 34.212268 -118.489393 173 806ft 49kts
15-Feb-21 17:34 34.208219 -118.488378 85 806ft 5kts
15-Feb-21 17:35 34.208578 -118.488032 34 806ft 10kts
15-Feb-21 17:36 34.209383 -118.487617 265 806ft 0kts
15-Feb-21 17:37 34.209383 -118.487617 265 806ft 0kts
15-Feb-21 17:38 34.209383 -118.487617 265 806ft 0kts

Navigation Log

Ident Type
Flight plan parsing failed, navigation log unavailable